sensor_id;sensor_type;location;lat;lon;timestamp;temperature;humidity
6988;DHT22;3534;49.960;8.018;2022-07-29T00:01:22;22.70;99.90
6988;DHT22;3534;49.960;8.018;2022-07-29T00:03:50;22.70;99.90
6988;DHT22;3534;49.960;8.018;2022-07-29T00:06:17;22.80;99.90
6988;DHT22;3534;49.960;8.018;2022-07-29T00:08:43;22.70;99.90
6988;DHT22;3534;49.960;8.018;2022-07-29T00:11:10;22.70;99.90
6988;DHT22;3534;49.960;8.018;2022-07-29T00:13:37;22.60;99.90
6988;DHT22;3534;49.960;8.018;2022-07-29T00:16:04;22.70;99.90
6988;DHT22;3534;49.960;8.018;2022-07-29T00:18:30;22.60;99.90
6988;DHT22;3534;49.960;8.018;2022-07-29T00:20:58;22.60;99.90
6988;DHT22;3534;49.960;8.018;2022-07-29T00:23:25;22.60;99.90
6988;DHT22;3534;49.960;8.018;2022-07-29T00:25:52;22.60;99.90
6988;DHT22;3534;49.960;8.018;2022-07-29T00:28:18;22.50;99.90
6988;DHT22;3534;49.960;8.018;2022-07-29T00:30:45;22.40;99.90
6988;DHT22;3534;49.960;8.018;2022-07-29T00:33:11;22.40;99.90
6988;DHT22;3534;49.960;8.018;2022-07-29T00:35:38;22.40;99.90
6988;DHT22;3534;49.960;8.018;2022-07-29T00:38:11;22.50;99.90
6988;DHT22;3534;49.960;8.018;2022-07-29T00:40:38;22.40;99.90
6988;DHT22;3534;49.960;8.018;2022-07-29T00:43:05;22.40;99.90
6988;DHT22;3534;49.960;8.018;2022-07-29T00:45:31;22.40;99.90
6988;DHT22;3534;49.960;8.018;2022-07-29T00:47:58;22.40;99.90
6988;DHT22;3534;49.960;8.018;2022-07-29T00:50:25;22.40;99.90
6988;DHT22;3534;49.960;8.018;2022-07-29T00:52:52;22.30;99.90
6988;DHT22;3534;49.960;8.018;2022-07-29T00:55:20;22.30;99.90
6988;DHT22;3534;49.960;8.018;2022-07-29T00:57:47;22.20;99.90
6988;DHT22;3534;49.960;8.018;2022-07-29T01:00:16;22.20;99.90
6988;DHT22;3534;49.960;8.018;2022-07-29T01:02:43;22.10;99.90
6988;DHT22;3534;49.960;8.018;2022-07-29T01:05:11;22.10;99.90
6988;DHT22;3534;49.960;8.018;2022-07-29T01:07:39;22.10;99.90
6988;DHT22;3534;49.960;8.018;2022-07-29T01:10:07;22.10;99.90
6988;DHT22;3534;49.960;8.018;2022-07-29T01:12:37;22.00;99.90
6988;DHT22;3534;49.960;8.018;2022-07-29T01:15:05;22.00;99.90
6988;DHT22;3534;49.960;8.018;2022-07-29T01:17:37;22.00;99.90
6988;DHT22;3534;49.960;8.018;2022-07-29T01:20:10;22.00;99.90
6988;DHT22;3534;49.960;8.018;2022-07-29T01:23:11;22.00;99.90
6988;DHT22;3534;49.960;8.018;2022-07-29T01:25:48;22.00;99.90
6988;DHT22;3534;49.960;8.018;2022-07-29T01:28:53;21.90;99.90
6988;DHT22;3534;49.960;8.018;2022-07-29T01:31:28;21.90;99.90
6988;DHT22;3534;49.960;8.018;2022-07-29T01:34:01;21.90;99.90
6988;DHT22;3534;49.960;8.018;2022-07-29T01:36:32;21.90;99.90
6988;DHT22;3534;49.960;8.018;2022-07-29T01:39:05;21.90;99.90
6988;DHT22;3534;49.960;8.018;2022-07-29T01:41:35;21.80;99.90
6988;DHT22;3534;49.960;8.018;2022-07-29T01:44:11;21.80;99.90
6988;DHT22;3534;49.960;8.018;2022-07-29T01:46:43;21.70;99.90
6988;DHT22;3534;49.960;8.018;2022-07-29T01:49:15;21.70;99.90
6988;DHT22;3534;49.960;8.018;2022-07-29T01:51:46;21.70;99.90
6988;DHT22;3534;49.960;8.018;2022-07-29T01:54:18;21.70;99.90
6988;DHT22;3534;49.960;8.018;2022-07-29T01:56:48;21.70;99.90
6988;DHT22;3534;49.960;8.018;2022-07-29T01:59:18;21.70;99.90
6988;DHT22;3534;49.960;8.018;2022-07-29T02:01:47;21.70;99.90
6988;DHT22;3534;49.960;8.018;2022-07-29T02:04:15;21.60;99.90
6988;DHT22;3534;49.960;8.018;2022-07-29T02:06:44;21.60;99.90
6988;DHT22;3534;49.960;8.018;2022-07-29T02:09:14;21.60;99.90
6988;DHT22;3534;49.960;8.018;2022-07-29T02:11:48;21.60;99.90
6988;DHT22;3534;49.960;8.018;2022-07-29T02:14:18;21.60;99.90
6988;DHT22;3534;49.960;8.018;2022-07-29T02:16:47;21.60;99.90
6988;DHT22;3534;49.960;8.018;2022-07-29T02:19:17;21.60;99.90
6988;DHT22;3534;49.960;8.018;2022-07-29T02:21:45;21.60;99.90
6988;DHT22;3534;49.960;8.018;2022-07-29T02:24:14;21.60;99.90
6988;DHT22;3534;49.960;8.018;2022-07-29T02:26:43;21.50;99.90
6988;DHT22;3534;49.960;8.018;2022-07-29T02:29:11;21.50;99.90
6988;DHT22;3534;49.960;8.018;2022-07-29T02:31:41;21.50;99.90
6988;DHT22;3534;49.960;8.018;2022-07-29T02:34:10;21.40;99.90
6988;DHT22;3534;49.960;8.018;2022-07-29T02:36:38;21.40;99.90
6988;DHT22;3534;49.960;8.018;2022-07-29T02:39:07;21.40;99.90
6988;DHT22;3534;49.960;8.018;2022-07-29T02:41:41;21.40;99.90
6988;DHT22;3534;49.960;8.018;2022-07-29T02:44:10;21.40;99.90
6988;DHT22;3534;49.960;8.018;2022-07-29T02:46:43;21.30;99.90
6988;DHT22;3534;49.960;8.018;2022-07-29T02:49:16;21.40;99.90
6988;DHT22;3534;49.960;8.018;2022-07-29T02:51:46;21.30;99.90
6988;DHT22;3534;49.960;8.018;2022-07-29T02:54:22;21.30;99.90
6988;DHT22;3534;49.960;8.018;2022-07-29T02:56:50;21.30;99.90
6988;DHT22;3534;49.960;8.018;2022-07-29T02:59:24;21.30;99.90
6988;DHT22;3534;49.960;8.018;2022-07-29T03:01:55;21.20;99.90
6988;DHT22;3534;49.960;8.018;2022-07-29T03:04:24;21.20;99.90
6988;DHT22;3534;49.960;8.018;2022-07-29T03:06:52;21.20;99.90
6988;DHT22;3534;49.960;8.018;2022-07-29T03:09:20;21.10;99.90
6988;DHT22;3534;49.960;8.018;2022-07-29T03:11:49;21.20;99.90
6988;DHT22;3534;49.960;8.018;2022-07-29T03:14:17;21.10;99.90
6988;DHT22;3534;49.960;8.018;2022-07-29T03:16:44;21.10;99.90
6988;DHT22;3534;49.960;8.018;2022-07-29T03:19:13;21.10;99.90
6988;DHT22;3534;49.960;8.018;2022-07-29T03:21:40;21.00;99.90
6988;DHT22;3534;49.960;8.018;2022-07-29T03:24:07;21.00;99.90
6988;DHT22;3534;49.960;8.018;2022-07-29T03:26:33;20.90;99.90
6988;DHT22;3534;49.960;8.018;2022-07-29T03:29:00;20.90;99.90
6988;DHT22;3534;49.960;8.018;2022-07-29T03:31:27;20.80;99.90
6988;DHT22;3534;49.960;8.018;2022-07-29T03:33:53;20.80;99.90
6988;DHT22;3534;49.960;8.018;2022-07-29T03:36:21;20.80;99.90
6988;DHT22;3534;49.960;8.018;2022-07-29T03:38:49;20.70;99.90
6988;DHT22;3534;49.960;8.018;2022-07-29T03:41:16;20.70;99.90
6988;DHT22;3534;49.960;8.018;2022-07-29T03:43:46;20.70;99.90
6988;DHT22;3534;49.960;8.018;2022-07-29T03:46:17;20.60;99.90
6988;DHT22;3534;49.960;8.018;2022-07-29T03:48:48;20.60;99.90
6988;DHT22;3534;49.960;8.018;2022-07-29T03:51:16;20.50;99.90
6988;DHT22;3534;49.960;8.018;2022-07-29T03:53:44;20.50;99.90
6988;DHT22;3534;49.960;8.018;2022-07-29T03:56:15;20.40;99.90
6988;DHT22;3534;49.960;8.018;2022-07-29T03:58:43;20.40;99.90
6988;DHT22;3534;49.960;8.018;2022-07-29T04:01:11;20.40;99.90
6988;DHT22;3534;49.960;8.018;2022-07-29T04:03:39;20.40;99.90
6988;DHT22;3534;49.960;8.018;2022-07-29T04:06:06;20.30;99.90
6988;DHT22;3534;49.960;8.018;2022-07-29T04:08:33;20.30;99.90
6988;DHT22;3534;49.960;8.018;2022-07-29T04:11:02;20.30;99.90
6988;DHT22;3534;49.960;8.018;2022-07-29T04:13:29;20.20;99.90
6988;DHT22;3534;49.960;8.018;2022-07-29T04:15:56;20.10;99.90
6988;DHT22;3534;49.960;8.018;2022-07-29T04:18:23;20.10;99.90
6988;DHT22;3534;49.960;8.018;2022-07-29T04:20:50;20.10;99.90
6988;DHT22;3534;49.960;8.018;2022-07-29T04:23:17;20.00;99.90
6988;DHT22;3534;49.960;8.018;2022-07-29T04:25:43;20.10;99.90
6988;DHT22;3534;49.960;8.018;2022-07-29T04:28:11;20.00;99.90
6988;DHT22;3534;49.960;8.018;2022-07-29T04:30:38;20.00;99.90
6988;DHT22;3534;49.960;8.018;2022-07-29T04:33:06;20.10;99.90
6988;DHT22;3534;49.960;8.018;2022-07-29T04:35:35;20.00;99.90
6988;DHT22;3534;49.960;8.018;2022-07-29T04:38:03;20.10;99.90
6988;DHT22;3534;49.960;8.018;2022-07-29T04:40:30;20.10;99.90
6988;DHT22;3534;49.960;8.018;2022-07-29T04:42:58;20.10;99.90
6988;DHT22;3534;49.960;8.018;2022-07-29T04:45:26;20.10;99.90
6988;DHT22;3534;49.960;8.018;2022-07-29T04:47:53;20.10;99.90
6988;DHT22;3534;49.960;8.018;2022-07-29T04:50:20;20.10;99.90
6988;DHT22;3534;49.960;8.018;2022-07-29T04:52:47;20.10;99.90
6988;DHT22;3534;49.960;8.018;2022-07-29T04:55:14;20.10;99.90
6988;DHT22;3534;49.960;8.018;2022-07-29T04:57:40;20.10;99.90
6988;DHT22;3534;49.960;8.018;2022-07-29T05:00:09;20.20;99.90
6988;DHT22;3534;49.960;8.018;2022-07-29T05:02:37;20.20;99.90
6988;DHT22;3534;49.960;8.018;2022-07-29T05:05:04;20.20;99.90
6988;DHT22;3534;49.960;8.018;2022-07-29T05:07:32;20.20;99.90
6988;DHT22;3534;49.960;8.018;2022-07-29T05:09:58;20.20;99.90
6988;DHT22;3534;49.960;8.018;2022-07-29T05:12:25;20.30;99.90
6988;DHT22;3534;49.960;8.018;2022-07-29T05:14:53;20.30;99.90
6988;DHT22;3534;49.960;8.018;2022-07-29T05:17:20;20.30;99.90
6988;DHT22;3534;49.960;8.018;2022-07-29T05:19:48;20.30;99.90
6988;DHT22;3534;49.960;8.018;2022-07-29T05:22:16;20.30;99.90
6988;DHT22;3534;49.960;8.018;2022-07-29T05:24:43;20.30;99.90
6988;DHT22;3534;49.960;8.018;2022-07-29T05:27:10;20.40;99.90
6988;DHT22;3534;49.960;8.018;2022-07-29T05:29:37;20.40;99.90
6988;DHT22;3534;49.960;8.018;2022-07-29T05:32:04;20.40;99.90
6988;DHT22;3534;49.960;8.018;2022-07-29T05:34:31;20.30;99.90
6988;DHT22;3534;49.960;8.018;2022-07-29T05:36:59;20.30;99.90
6988;DHT22;3534;49.960;8.018;2022-07-29T05:39:26;20.20;99.90
6988;DHT22;3534;49.960;8.018;2022-07-29T05:41:52;20.30;99.90
6988;DHT22;3534;49.960;8.018;2022-07-29T05:44:19;20.30;99.90
6988;DHT22;3534;49.960;8.018;2022-07-29T05:46:46;20.40;99.90
6988;DHT22;3534;49.960;8.018;2022-07-29T05:49:13;20.40;99.90
6988;DHT22;3534;49.960;8.018;2022-07-29T05:51:39;20.50;99.90
6988;DHT22;3534;49.960;8.018;2022-07-29T05:54:08;20.50;99.90
6988;DHT22;3534;49.960;8.018;2022-07-29T05:56:35;20.50;99.90
6988;DHT22;3534;49.960;8.018;2022-07-29T05:59:02;20.50;99.90
6988;DHT22;3534;49.960;8.018;2022-07-29T06:01:29;20.60;99.90
6988;DHT22;3534;49.960;8.018;2022-07-29T06:03:56;20.70;99.90
6988;DHT22;3534;49.960;8.018;2022-07-29T06:06:23;20.70;99.90
6988;DHT22;3534;49.960;8.018;2022-07-29T06:08:50;20.80;99.90
6988;DHT22;3534;49.960;8.018;2022-07-29T06:11:18;20.90;99.90
6988;DHT22;3534;49.960;8.018;2022-07-29T06:13:45;20.90;99.90
6988;DHT22;3534;49.960;8.018;2022-07-29T06:16:11;21.00;99.90
6988;DHT22;3534;49.960;8.018;2022-07-29T06:18:38;21.00;99.90
6988;DHT22;3534;49.960;8.018;2022-07-29T06:21:08;21.00;99.90
6988;DHT22;3534;49.960;8.018;2022-07-29T06:23:35;21.00;99.90
6988;DHT22;3534;49.960;8.018;2022-07-29T06:26:03;21.10;99.90
6988;DHT22;3534;49.960;8.018;2022-07-29T06:28:31;21.10;99.90
6988;DHT22;3534;49.960;8.018;2022-07-29T06:30:58;21.10;99.90
6988;DHT22;3534;49.960;8.018;2022-07-29T06:33:24;21.20;99.90
6988;DHT22;3534;49.960;8.018;2022-07-29T06:35:51;21.30;99.90
6988;DHT22;3534;49.960;8.018;2022-07-29T06:38:18;21.30;99.90
6988;DHT22;3534;49.960;8.018;2022-07-29T06:40:45;21.40;99.90
6988;DHT22;3534;49.960;8.018;2022-07-29T06:43:29;21.50;99.90
6988;DHT22;3534;49.960;8.018;2022-07-29T06:45:59;21.60;99.90
6988;DHT22;3534;49.960;8.018;2022-07-29T06:48:27;21.60;99.90
6988;DHT22;3534;49.960;8.018;2022-07-29T06:50:53;21.60;99.90
6988;DHT22;3534;49.960;8.018;2022-07-29T06:53:20;21.70;99.90
6988;DHT22;3534;49.960;8.018;2022-07-29T06:55:47;21.70;99.90
6988;DHT22;3534;49.960;8.018;2022-07-29T06:58:14;21.80;99.90
6988;DHT22;3534;49.960;8.018;2022-07-29T07:00:43;21.90;99.90
6988;DHT22;3534;49.960;8.018;2022-07-29T07:03:11;22.00;99.90
6988;DHT22;3534;49.960;8.018;2022-07-29T07:05:38;22.10;99.90
6988;DHT22;3534;49.960;8.018;2022-07-29T07:08:05;22.20;99.90
6988;DHT22;3534;49.960;8.018;2022-07-29T07:10:32;22.20;99.90
6988;DHT22;3534;49.960;8.018;2022-07-29T07:12:59;22.30;99.90
6988;DHT22;3534;49.960;8.018;2022-07-29T07:15:26;22.30;99.90
6988;DHT22;3534;49.960;8.018;2022-07-29T07:17:53;22.40;99.90
6988;DHT22;3534;49.960;8.018;2022-07-29T07:20:21;22.50;99.90
6988;DHT22;3534;49.960;8.018;2022-07-29T07:22:48;22.50;99.90
6988;DHT22;3534;49.960;8.018;2022-07-29T07:25:14;22.60;99.90
6988;DHT22;3534;49.960;8.018;2022-07-29T07:27:42;22.60;99.90
6988;DHT22;3534;49.960;8.018;2022-07-29T07:30:10;22.70;99.90
6988;DHT22;3534;49.960;8.018;2022-07-29T07:32:37;22.70;99.90
6988;DHT22;3534;49.960;8.018;2022-07-29T07:35:06;22.80;99.90
6988;DHT22;3534;49.960;8.018;2022-07-29T07:37:35;22.80;99.90
6988;DHT22;3534;49.960;8.018;2022-07-29T07:40:02;22.90;99.90
6988;DHT22;3534;49.960;8.018;2022-07-29T07:42:29;22.90;99.90
6988;DHT22;3534;49.960;8.018;2022-07-29T07:44:56;23.00;99.90
6988;DHT22;3534;49.960;8.018;2022-07-29T07:47:23;23.00;99.90
6988;DHT22;3534;49.960;8.018;2022-07-29T07:49:50;23.10;99.90
6988;DHT22;3534;49.960;8.018;2022-07-29T07:52:18;23.10;99.90
6988;DHT22;3534;49.960;8.018;2022-07-29T07:54:49;23.20;99.90
6988;DHT22;3534;49.960;8.018;2022-07-29T07:57:16;23.30;99.90
6988;DHT22;3534;49.960;8.018;2022-07-29T07:59:43;23.30;99.90
6988;DHT22;3534;49.960;8.018;2022-07-29T08:02:10;23.40;99.90
6988;DHT22;3534;49.960;8.018;2022-07-29T08:04:37;23.50;99.90
6988;DHT22;3534;49.960;8.018;2022-07-29T08:07:06;23.50;99.90
6988;DHT22;3534;49.960;8.018;2022-07-29T08:09:34;23.60;99.90
6988;DHT22;3534;49.960;8.018;2022-07-29T08:12:03;23.60;99.90
6988;DHT22;3534;49.960;8.018;2022-07-29T08:14:31;23.70;99.90
6988;DHT22;3534;49.960;8.018;2022-07-29T08:16:58;23.80;99.90
6988;DHT22;3534;49.960;8.018;2022-07-29T08:19:25;23.80;99.90
6988;DHT22;3534;49.960;8.018;2022-07-29T08:21:52;23.90;99.90
6988;DHT22;3534;49.960;8.018;2022-07-29T08:24:20;23.90;99.90
6988;DHT22;3534;49.960;8.018;2022-07-29T08:27:05;24.00;99.90
6988;DHT22;3534;49.960;8.018;2022-07-29T08:29:32;24.00;99.90
6988;DHT22;3534;49.960;8.018;2022-07-29T08:31:59;24.00;99.90
6988;DHT22;3534;49.960;8.018;2022-07-29T08:34:26;24.00;99.90
6988;DHT22;3534;49.960;8.018;2022-07-29T08:36:54;24.00;99.90
6988;DHT22;3534;49.960;8.018;2022-07-29T08:39:21;24.00;99.90
6988;DHT22;3534;49.960;8.018;2022-07-29T08:41:47;24.10;99.90
6988;DHT22;3534;49.960;8.018;2022-07-29T08:44:17;24.10;99.90
6988;DHT22;3534;49.960;8.018;2022-07-29T08:46:44;24.20;99.90
6988;DHT22;3534;49.960;8.018;2022-07-29T08:49:11;24.20;99.90
6988;DHT22;3534;49.960;8.018;2022-07-29T08:51:39;24.30;99.90
6988;DHT22;3534;49.960;8.018;2022-07-29T08:54:08;24.30;99.90
6988;DHT22;3534;49.960;8.018;2022-07-29T08:56:35;24.40;99.90
6988;DHT22;3534;49.960;8.018;2022-07-29T08:59:03;24.40;99.90
6988;DHT22;3534;49.960;8.018;2022-07-29T09:01:33;24.40;99.90
6988;DHT22;3534;49.960;8.018;2022-07-29T09:04:01;24.40;99.90
6988;DHT22;3534;49.960;8.018;2022-07-29T09:06:31;24.50;99.90
6988;DHT22;3534;49.960;8.018;2022-07-29T09:08:59;24.50;99.90
6988;DHT22;3534;49.960;8.018;2022-07-29T09:11:26;24.60;99.90
6988;DHT22;3534;49.960;8.018;2022-07-29T09:13:53;24.60;99.90
6988;DHT22;3534;49.960;8.018;2022-07-29T09:16:20;24.70;99.90
6988;DHT22;3534;49.960;8.018;2022-07-29T09:18:48;24.80;99.90
6988;DHT22;3534;49.960;8.018;2022-07-29T09:21:16;24.80;99.90
6988;DHT22;3534;49.960;8.018;2022-07-29T09:24:04;24.90;99.90
6988;DHT22;3534;49.960;8.018;2022-07-29T09:26:33;25.00;99.90
6988;DHT22;3534;49.960;8.018;2022-07-29T09:29:00;25.10;99.90
6988;DHT22;3534;49.960;8.018;2022-07-29T09:31:35;25.20;99.90
6988;DHT22;3534;49.960;8.018;2022-07-29T09:34:04;25.30;99.90
6988;DHT22;3534;49.960;8.018;2022-07-29T09:36:39;25.40;99.90
6988;DHT22;3534;49.960;8.018;2022-07-29T09:39:05;25.50;99.90
6988;DHT22;3534;49.960;8.018;2022-07-29T09:41:44;25.60;99.90
6988;DHT22;3534;49.960;8.018;2022-07-29T09:44:11;25.60;99.90
6988;DHT22;3534;49.960;8.018;2022-07-29T09:46:40;25.60;99.90
6988;DHT22;3534;49.960;8.018;2022-07-29T09:49:10;25.70;99.90
6988;DHT22;3534;49.960;8.018;2022-07-29T09:51:38;25.70;99.90
6988;DHT22;3534;49.960;8.018;2022-07-29T09:54:21;25.80;99.90
6988;DHT22;3534;49.960;8.018;2022-07-29T09:56:48;25.90;99.90
6988;DHT22;3534;49.960;8.018;2022-07-29T09:59:14;25.90;99.90
6988;DHT22;3534;49.960;8.018;2022-07-29T10:01:41;26.00;99.90
6988;DHT22;3534;49.960;8.018;2022-07-29T10:04:09;26.10;99.90
6988;DHT22;3534;49.960;8.018;2022-07-29T10:06:55;26.20;99.90
6988;DHT22;3534;49.960;8.018;2022-07-29T10:09:23;26.30;99.90
6988;DHT22;3534;49.960;8.018;2022-07-29T10:12:07;26.30;99.90
6988;DHT22;3534;49.960;8.018;2022-07-29T10:14:34;26.40;99.90
6988;DHT22;3534;49.960;8.018;2022-07-29T10:17:02;26.40;99.90
6988;DHT22;3534;49.960;8.018;2022-07-29T10:19:32;26.50;99.90
6988;DHT22;3534;49.960;8.018;2022-07-29T10:22:00;26.50;99.90
6988;DHT22;3534;49.960;8.018;2022-07-29T10:24:28;26.60;99.90
6988;DHT22;3534;49.960;8.018;2022-07-29T10:26:57;26.60;99.90
6988;DHT22;3534;49.960;8.018;2022-07-29T10:29:25;26.70;99.90
6988;DHT22;3534;49.960;8.018;2022-07-29T10:32:11;26.70;99.90
6988;DHT22;3534;49.960;8.018;2022-07-29T10:34:55;26.80;99.90
6988;DHT22;3534;49.960;8.018;2022-07-29T10:37:28;26.90;99.90
6988;DHT22;3534;49.960;8.018;2022-07-29T10:40:06;26.90;99.90
6988;DHT22;3534;49.960;8.018;2022-07-29T10:42:52;27.00;99.90
6988;DHT22;3534;49.960;8.018;2022-07-29T10:45:20;27.10;99.90
6988;DHT22;3534;49.960;8.018;2022-07-29T10:47:47;27.10;99.90
6988;DHT22;3534;49.960;8.018;2022-07-29T10:50:16;27.10;99.90
6988;DHT22;3534;49.960;8.018;2022-07-29T10:52:55;27.20;99.90
6988;DHT22;3534;49.960;8.018;2022-07-29T10:55:33;27.20;99.80
6988;DHT22;3534;49.960;8.018;2022-07-29T10:58:12;27.20;99.90
6988;DHT22;3534;49.960;8.018;2022-07-29T11:00:40;27.30;99.50
6988;DHT22;3534;49.960;8.018;2022-07-29T11:03:06;27.30;99.00
6988;DHT22;3534;49.960;8.018;2022-07-29T11:05:53;27.20;99.20
6988;DHT22;3534;49.960;8.018;2022-07-29T11:08:22;27.20;99.30
6988;DHT22;3534;49.960;8.018;2022-07-29T11:10:53;27.20;98.90
6988;DHT22;3534;49.960;8.018;2022-07-29T11:13:51;27.30;98.60
6988;DHT22;3534;49.960;8.018;2022-07-29T11:16:21;27.40;98.00
6988;DHT22;3534;49.960;8.018;2022-07-29T11:19:18;27.40;98.10
6988;DHT22;3534;49.960;8.018;2022-07-29T11:21:47;27.60;97.60
6988;DHT22;3534;49.960;8.018;2022-07-29T11:24:17;27.60;97.20
6988;DHT22;3534;49.960;8.018;2022-07-29T11:26:44;27.70;97.60
6988;DHT22;3534;49.960;8.018;2022-07-29T11:29:18;27.80;97.30
6988;DHT22;3534;49.960;8.018;2022-07-29T11:31:47;27.80;97.10
6988;DHT22;3534;49.960;8.018;2022-07-29T11:34:24;27.80;96.70
6988;DHT22;3534;49.960;8.018;2022-07-29T11:37:14;27.90;96.70
6988;DHT22;3534;49.960;8.018;2022-07-29T11:39:42;28.00;96.80
6988;DHT22;3534;49.960;8.018;2022-07-29T11:42:38;28.00;96.20
6988;DHT22;3534;49.960;8.018;2022-07-29T11:45:07;28.10;96.10
6988;DHT22;3534;49.960;8.018;2022-07-29T11:47:36;28.30;95.60
6988;DHT22;3534;49.960;8.018;2022-07-29T11:50:05;28.30;95.40
6988;DHT22;3534;49.960;8.018;2022-07-29T11:52:35;28.50;95.00
6988;DHT22;3534;49.960;8.018;2022-07-29T11:55:04;28.60;95.20
6988;DHT22;3534;49.960;8.018;2022-07-29T11:57:31;28.70;94.70
6988;DHT22;3534;49.960;8.018;2022-07-29T12:00:00;28.90;94.30
6988;DHT22;3534;49.960;8.018;2022-07-29T12:02:38;28.90;94.10
6988;DHT22;3534;49.960;8.018;2022-07-29T12:05:08;29.00;93.90
6988;DHT22;3534;49.960;8.018;2022-07-29T12:07:38;29.10;93.50
6988;DHT22;3534;49.960;8.018;2022-07-29T12:10:06;29.10;93.20
6988;DHT22;3534;49.960;8.018;2022-07-29T12:12:33;29.10;93.00
6988;DHT22;3534;49.960;8.018;2022-07-29T12:15:11;29.10;93.40
6988;DHT22;3534;49.960;8.018;2022-07-29T12:17:38;29.10;93.10
6988;DHT22;3534;49.960;8.018;2022-07-29T12:20:06;29.10;93.00
6988;DHT22;3534;49.960;8.018;2022-07-29T12:22:35;29.10;92.80
6988;DHT22;3534;49.960;8.018;2022-07-29T12:25:07;29.00;92.70
6988;DHT22;3534;49.960;8.018;2022-07-29T12:27:35;29.00;92.80
6988;DHT22;3534;49.960;8.018;2022-07-29T12:30:05;29.10;92.60
6988;DHT22;3534;49.960;8.018;2022-07-29T12:32:33;29.10;92.20
6988;DHT22;3534;49.960;8.018;2022-07-29T12:35:03;29.20;92.30
6988;DHT22;3534;49.960;8.018;2022-07-29T12:37:30;29.20;92.90
6988;DHT22;3534;49.960;8.018;2022-07-29T12:39:57;29.50;92.90
6988;DHT22;3534;49.960;8.018;2022-07-29T12:42:25;29.60;92.20
6988;DHT22;3534;49.960;8.018;2022-07-29T12:44:52;29.80;91.70
6988;DHT22;3534;49.960;8.018;2022-07-29T12:47:19;29.90;91.70
6988;DHT22;3534;49.960;8.018;2022-07-29T12:49:46;30.10;91.20
6988;DHT22;3534;49.960;8.018;2022-07-29T12:52:32;30.20;91.00
6988;DHT22;3534;49.960;8.018;2022-07-29T12:54:59;30.30;90.40
6988;DHT22;3534;49.960;8.018;2022-07-29T12:57:28;30.30;90.40
6988;DHT22;3534;49.960;8.018;2022-07-29T13:00:04;30.40;90.40
6988;DHT22;3534;49.960;8.018;2022-07-29T13:02:31;30.40;90.30
6988;DHT22;3534;49.960;8.018;2022-07-29T13:04:59;30.70;90.50
6988;DHT22;3534;49.960;8.018;2022-07-29T13:07:27;31.00;89.70
6988;DHT22;3534;49.960;8.018;2022-07-29T13:10:08;31.40;88.60
6988;DHT22;3534;49.960;8.018;2022-07-29T13:12:37;31.90;87.70
6988;DHT22;3534;49.960;8.018;2022-07-29T13:15:13;32.30;88.10
6988;DHT22;3534;49.960;8.018;2022-07-29T13:17:40;32.70;85.60
6988;DHT22;3534;49.960;8.018;2022-07-29T13:20:09;33.10;85.00
6988;DHT22;3534;49.960;8.018;2022-07-29T13:22:38;33.30;83.40
6988;DHT22;3534;49.960;8.018;2022-07-29T13:25:06;33.20;82.60
6988;DHT22;3534;49.960;8.018;2022-07-29T13:27:34;33.00;82.40
6988;DHT22;3534;49.960;8.018;2022-07-29T13:30:04;33.10;81.20
6988;DHT22;3534;49.960;8.018;2022-07-29T13:32:32;33.10;81.00
6988;DHT22;3534;49.960;8.018;2022-07-29T13:35:02;32.90;79.30
6988;DHT22;3534;49.960;8.018;2022-07-29T13:37:29;32.70;80.00
6988;DHT22;3534;49.960;8.018;2022-07-29T13:39:58;32.50;80.10
6988;DHT22;3534;49.960;8.018;2022-07-29T13:42:26;32.50;80.10
6988;DHT22;3534;49.960;8.018;2022-07-29T13:44:52;32.50;78.70
6988;DHT22;3534;49.960;8.018;2022-07-29T13:47:21;32.60;78.90
6988;DHT22;3534;49.960;8.018;2022-07-29T13:49:49;32.70;78.20
6988;DHT22;3534;49.960;8.018;2022-07-29T13:52:16;32.70;77.60
6988;DHT22;3534;49.960;8.018;2022-07-29T13:54:43;32.60;77.50
6988;DHT22;3534;49.960;8.018;2022-07-29T13:57:10;32.50;77.80
6988;DHT22;3534;49.960;8.018;2022-07-29T13:59:37;32.50;78.40
6988;DHT22;3534;49.960;8.018;2022-07-29T14:02:04;32.40;79.00
6988;DHT22;3534;49.960;8.018;2022-07-29T14:04:32;32.40;79.40
6988;DHT22;3534;49.960;8.018;2022-07-29T14:06:59;32.10;77.90
6988;DHT22;3534;49.960;8.018;2022-07-29T14:09:26;31.70;78.10
6988;DHT22;3534;49.960;8.018;2022-07-29T14:11:52;31.50;79.10
6988;DHT22;3534;49.960;8.018;2022-07-29T14:14:20;31.50;78.80
6988;DHT22;3534;49.960;8.018;2022-07-29T14:16:46;31.50;79.00
6988;DHT22;3534;49.960;8.018;2022-07-29T14:19:13;31.30;79.40
6988;DHT22;3534;49.960;8.018;2022-07-29T14:21:41;31.20;79.10
6988;DHT22;3534;49.960;8.018;2022-07-29T14:24:08;31.10;79.00
6988;DHT22;3534;49.960;8.018;2022-07-29T14:26:35;31.10;78.70
6988;DHT22;3534;49.960;8.018;2022-07-29T14:29:02;31.10;78.90
6988;DHT22;3534;49.960;8.018;2022-07-29T14:31:28;31.00;78.30
6988;DHT22;3534;49.960;8.018;2022-07-29T14:33:55;30.90;78.30
6988;DHT22;3534;49.960;8.018;2022-07-29T14:36:22;30.60;78.80
6988;DHT22;3534;49.960;8.018;2022-07-29T14:38:50;30.40;80.60
6988;DHT22;3534;49.960;8.018;2022-07-29T14:41:17;30.40;82.20
6988;DHT22;3534;49.960;8.018;2022-07-29T14:43:43;30.30;82.90
6988;DHT22;3534;49.960;8.018;2022-07-29T14:46:10;30.40;83.50
6988;DHT22;3534;49.960;8.018;2022-07-29T14:48:37;30.30;84.60
6988;DHT22;3534;49.960;8.018;2022-07-29T14:51:04;30.10;83.80
6988;DHT22;3534;49.960;8.018;2022-07-29T14:53:31;29.90;84.50
6988;DHT22;3534;49.960;8.018;2022-07-29T14:55:59;29.70;84.90
6988;DHT22;3534;49.960;8.018;2022-07-29T14:58:26;29.70;85.70
6988;DHT22;3534;49.960;8.018;2022-07-29T15:00:53;29.70;85.70
6988;DHT22;3534;49.960;8.018;2022-07-29T15:03:20;29.70;85.90
6988;DHT22;3534;49.960;8.018;2022-07-29T15:05:46;29.90;85.70
6988;DHT22;3534;49.960;8.018;2022-07-29T15:08:13;29.90;85.30
6988;DHT22;3534;49.960;8.018;2022-07-29T15:10:40;30.10;85.40
6988;DHT22;3534;49.960;8.018;2022-07-29T15:13:08;30.10;85.50
6988;DHT22;3534;49.960;8.018;2022-07-29T15:15:35;30.30;85.60
6988;DHT22;3534;49.960;8.018;2022-07-29T15:18:01;30.50;84.90
6988;DHT22;3534;49.960;8.018;2022-07-29T15:20:28;30.70;85.40
6988;DHT22;3534;49.960;8.018;2022-07-29T15:22:55;30.80;86.50
6988;DHT22;3534;49.960;8.018;2022-07-29T15:25:23;30.80;87.10
6988;DHT22;3534;49.960;8.018;2022-07-29T15:27:49;30.70;86.70
6988;DHT22;3534;49.960;8.018;2022-07-29T15:30:17;30.60;88.10
6988;DHT22;3534;49.960;8.018;2022-07-29T15:32:44;30.60;88.50
6988;DHT22;3534;49.960;8.018;2022-07-29T15:35:11;30.80;88.70
6988;DHT22;3534;49.960;8.018;2022-07-29T15:37:38;31.10;90.10
6988;DHT22;3534;49.960;8.018;2022-07-29T15:40:07;31.60;88.70
6988;DHT22;3534;49.960;8.018;2022-07-29T15:42:35;32.00;88.30
6988;DHT22;3534;49.960;8.018;2022-07-29T15:45:03;32.40;85.20
6988;DHT22;3534;49.960;8.018;2022-07-29T15:47:31;32.60;86.60
6988;DHT22;3534;49.960;8.018;2022-07-29T15:49:57;32.70;83.90
6988;DHT22;3534;49.960;8.018;2022-07-29T15:52:24;32.70;85.20
6988;DHT22;3534;49.960;8.018;2022-07-29T15:54:51;32.70;83.30
6988;DHT22;3534;49.960;8.018;2022-07-29T15:57:18;32.90;85.80
6988;DHT22;3534;49.960;8.018;2022-07-29T15:59:45;32.80;82.20
6988;DHT22;3534;49.960;8.018;2022-07-29T16:02:11;32.70;82.10
6988;DHT22;3534;49.960;8.018;2022-07-29T16:04:39;32.40;82.80
6988;DHT22;3534;49.960;8.018;2022-07-29T16:07:06;32.00;84.70
6988;DHT22;3534;49.960;8.018;2022-07-29T16:09:33;31.80;84.20
6988;DHT22;3534;49.960;8.018;2022-07-29T16:11:59;31.50;86.10
6988;DHT22;3534;49.960;8.018;2022-07-29T16:14:26;31.20;85.60